Time;durP1;ratioP1;P1;durP2;ratioP2;P2;SDS_P1;SDS_P2;PMS_P1;PMS_P2;Temp;Humidity;BMP_temperature;BMP_pressure;BME280_temperature;BME280_humidity;BME280_pressure;Samples;Min_cycle;Max_cycle;Signal;HPM_P1;HPM_P2
2023/08/24 00:01:43;;;;;;;5.53;5.03;;;20.50;97.50;;;;;;5032235;28;20442;-42
2023/08/24 00:04:10;;;;;;;7.50;5.23;;;20.40;97.60;;;;;;5033588;28;20781;-45
2023/08/24 00:06:38;;;;;;;6.83;4.90;;;20.40;98.00;;;;;;5037870;28;20476;-40
2023/08/24 00:09:05;;;;;;;5.97;5.37;;;20.40;97.90;;;;;;5037966;28;20543;-42
2023/08/24 00:11:32;;;;;;;9.47;6.00;;;20.40;97.90;;;;;;5034945;28;20480;-42
2023/08/24 00:13:59;;;;;;;7.60;5.10;;;20.30;98.30;;;;;;5035086;28;20931;-43
2023/08/24 00:16:26;;;;;;;6.97;5.53;;;20.30;98.40;;;;;;5035087;28;20491;-43
2023/08/24 00:18:53;;;;;;;7.70;5.27;;;20.30;98.50;;;;;;5034474;28;20475;-43
2023/08/24 00:21:22;;;;;;;6.70;5.07;;;20.20;98.30;;;;;;5034936;28;20779;-42
2023/08/24 00:23:49;;;;;;;6.20;4.47;;;20.20;98.70;;;;;;5034884;28;20438;-43
2023/08/24 00:26:16;;;;;;;6.90;5.07;;;20.20;98.50;;;;;;5035066;28;20790;-43
2023/08/24 00:28:43;;;;;;;5.83;5.20;;;20.20;98.60;;;;;;5033162;28;20822;-43
2023/08/24 00:31:11;;;;;;;5.37;4.70;;;20.20;98.60;;;;;;5034907;28;20434;-44
2023/08/24 00:33:38;;;;;;;7.17;4.70;;;20.20;98.70;;;;;;5035078;28;20495;-43
2023/08/24 00:36:06;;;;;;;7.17;5.03;;;20.20;99.00;;;;;;5034864;28;20437;-42
2023/08/24 00:38:33;;;;;;;5.30;4.53;;;20.10;98.90;;;;;;5034309;28;20427;-44
2023/08/24 00:40:59;;;;;;;8.30;4.90;;;20.10;99.10;;;;;;5033768;28;20495;-42
2023/08/24 00:43:27;;;;;;;10.80;6.20;;;20.10;99.00;;;;;;5033421;28;20436;-44
2023/08/24 00:45:56;;;;;;;6.27;5.23;;;20.10;99.40;;;;;;5034490;28;20434;-42
2023/08/24 00:48:25;;;;;;;8.10;5.60;;;20.00;99.40;;;;;;5032532;28;20840;-42
2023/08/24 00:50:52;;;;;;;5.50;4.53;;;20.00;99.70;;;;;;5032939;28;21005;-43
2023/08/24 00:53:20;;;;;;;5.83;5.27;;;20.00;99.80;;;;;;5034204;28;20961;-43
2023/08/24 00:55:47;;;;;;;7.13;6.30;;;20.00;99.90;;;;;;5034010;28;20952;-42
2023/08/24 00:58:14;;;;;;;6.03;5.40;;;19.90;99.90;;;;;;5033527;28;20449;-43
2023/08/24 01:00:42;;;;;;;5.50;5.00;;;19.90;99.90;;;;;;5034237;28;20937;-42
2023/08/24 01:03:08;;;;;;;7.13;5.47;;;19.90;99.90;;;;;;5033510;28;20927;-43
2023/08/24 01:05:37;;;;;;;6.73;4.83;;;19.90;99.90;;;;;;5033800;28;20452;-44
2023/08/24 01:08:04;;;;;;;6.83;5.50;;;19.90;99.90;;;;;;5032333;28;20471;-43
2023/08/24 01:10:40;;;;;;;7.07;5.73;;;19.90;99.90;;;;;;5032380;28;20552;-45
2023/08/24 01:13:10;;;;;;;5.70;4.87;;;19.90;99.90;;;;;;5033851;28;20431;-43
2023/08/24 01:15:45;;;;;;;6.00;5.43;;;19.90;99.90;;;;;;5033583;28;20439;-44
2023/08/24 01:18:15;;;;;;;6.73;5.53;;;19.90;99.90;;;;;;5031937;28;20543;-44
2023/08/24 01:20:44;;;;;;;9.97;6.57;;;19.90;99.90;;;;;;5033558;28;20438;-43
2023/08/24 01:23:28;;;;;;;7.17;5.70;;;20.00;99.90;;;;;;5032109;28;20452;-42
2023/08/24 01:26:05;;;;;;;5.30;4.43;;;20.00;99.90;;;;;;5033467;28;20461;-43
2023/08/24 01:28:33;;;;;;;6.70;5.83;;;20.00;99.90;;;;;;5031835;28;20572;-44
2023/08/24 01:31:00;;;;;;;5.50;5.00;;;20.00;99.90;;;;;;5033103;28;20847;-43
2023/08/24 01:33:27;;;;;;;5.87;5.20;;;20.00;99.90;;;;;;5033485;28;20444;-43
2023/08/24 01:35:54;;;;;;;7.97;5.10;;;20.10;99.90;;;;;;5033213;28;20527;-43
2023/08/24 01:38:21;;;;;;;8.73;5.40;;;20.00;99.90;;;;;;5031512;28;20556;-43
2023/08/24 01:40:55;;;;;;;7.20;5.00;;;20.10;99.90;;;;;;5031983;28;20871;-42
2023/08/24 01:43:29;;;;;;;7.83;4.90;;;20.10;99.90;;;;;;5031968;28;20452;-43
2023/08/24 01:45:56;;;;;;;7.27;5.07;;;20.10;99.90;;;;;;5032988;28;20452;-42
2023/08/24 01:48:23;;;;;;;7.83;6.20;;;20.10;99.90;;;;;;5031184;28;20466;-42
2023/08/24 01:50:51;;;;;;;7.37;5.20;;;20.10;99.90;;;;;;5031564;28;21000;-42
2023/08/24 01:53:18;;;;;;;10.00;5.33;;;20.20;99.90;;;;;;5032837;28;20514;-44
2023/08/24 01:55:46;;;;;;;8.77;5.60;;;20.20;99.90;;;;;;5031640;28;20449;-42
2023/08/24 01:58:12;;;;;;;8.57;5.67;;;20.20;99.90;;;;;;5031387;28;20466;-43
2023/08/24 02:00:40;;;;;;;7.50;5.77;;;20.60;99.90;;;;;;5031278;28;20482;-43
2023/08/24 02:03:07;;;;;;;8.80;5.30;;;20.30;99.90;;;;;;5032548;28;20489;-43
2023/08/24 02:05:33;;;;;;;10.13;6.93;;;20.30;99.90;;;;;;5031289;28;20449;-41
2023/08/24 02:08:00;;;;;;;7.17;4.90;;;20.30;99.90;;;;;;5032210;28;20544;-42
2023/08/24 02:10:27;;;;;;;6.83;5.10;;;20.30;99.90;;;;;;5032538;28;20845;-43
2023/08/24 02:12:53;;;;;;;7.77;5.63;;;20.30;99.90;;;;;;5031412;28;20449;-42
2023/08/24 02:15:21;;;;;;;5.70;4.80;;;20.30;99.90;;;;;;5031180;28;20481;-43
2023/08/24 02:17:48;;;;;;;5.70;4.20;;;20.60;99.90;;;;;;5032301;28;20479;-44
2023/08/24 02:20:14;;;;;;;6.80;4.87;;;20.30;99.90;;;;;;5031613;28;20533;-42
2023/08/24 02:22:41;;;;;;;5.63;5.07;;;20.40;99.90;;;;;;5033294;28;20446;-43
2023/08/24 02:25:10;;;;;;;7.10;4.87;;;20.40;99.90;;;;;;5032134;28;20950;-44
2023/08/24 02:27:38;;;;;;;6.67;5.50;;;20.50;99.90;;;;;;5030340;28;20571;-42
2023/08/24 02:30:06;;;;;;;5.70;4.90;;;20.40;99.90;;;;;;5031018;28;20485;-44
2023/08/24 02:32:33;;;;;;;6.80;5.20;;;20.50;99.90;;;;;;5032491;28;20440;-43
2023/08/24 02:35:01;;;;;;;8.30;6.47;;;20.50;99.90;;;;;;5032473;28;20434;-43
2023/08/24 02:37:30;;;;;;;7.93;5.93;;;20.50;99.90;;;;;;5030697;28;20860;-42
2023/08/24 02:39:56;;;;;;;9.33;5.97;;;20.60;99.90;;;;;;5032776;28;20407;-42
2023/08/24 02:42:23;;;;;;;11.23;5.70;;;20.60;99.90;;;;;;5032373;28;20424;-44
2023/08/24 02:44:50;;;;;;;9.37;6.13;;;20.60;99.90;;;;;;5031179;28;20457;-43
2023/08/24 02:47:16;;;;;;;5.53;4.90;;;20.60;99.90;;;;;;5030877;28;20447;-42
2023/08/24 02:49:43;;;;;;;12.00;6.07;;;20.70;99.90;;;;;;5031406;28;20453;-42
2023/08/24 02:52:12;;;;;;;9.83;6.13;;;20.90;99.90;;;;;;5031317;28;20450;-41
2023/08/24 02:54:39;;;;;;;11.03;6.43;;;20.80;99.90;;;;;;5033552;28;20557;-43
2023/08/24 02:57:06;;;;;;;7.47;5.50;;;20.80;99.90;;;;;;5032173;28;20793;-44
2023/08/24 02:59:34;;;;;;;9.63;5.93;;;20.80;99.90;;;;;;5031948;28;20450;-43
2023/08/24 03:02:01;;;;;;;7.73;5.30;;;20.80;99.90;;;;;;5033417;28;20549;-42
2023/08/24 03:04:29;;;;;;;8.20;5.97;;;20.80;99.90;;;;;;5035769;28;20521;-42
2023/08/24 03:06:56;;;;;;;7.17;5.90;;;20.80;99.90;;;;;;5034696;28;20450;-42
2023/08/24 03:09:24;;;;;;;9.80;5.77;;;20.90;99.90;;;;;;5035530;28;20474;-43
2023/08/24 03:11:51;;;;;;;10.07;5.40;;;21.00;99.90;;;;;;5039568;28;20811;-43
2023/08/24 03:14:18;;;;;;;5.83;4.57;;;20.90;99.90;;;;;;5038773;28;20464;-43
2023/08/24 03:16:45;;;;;;;6.77;5.60;;;20.80;99.90;;;;;;5038036;28;20461;-41
2023/08/24 03:19:14;;;;;;;7.87;4.90;;;20.90;99.90;;;;;;5037203;28;20444;-45
2023/08/24 03:21:40;;;;;;;9.43;5.17;;;20.90;99.90;;;;;;5035402;28;20488;-46
2023/08/24 03:24:07;;;;;;;7.40;5.50;;;20.90;99.90;;;;;;5031819;28;20465;-45
2023/08/24 03:26:35;;;;;;;8.30;5.80;;;20.90;99.90;;;;;;5031837;28;20438;-43
2023/08/24 03:29:02;;;;;;;10.77;5.30;;;21.00;99.90;;;;;;5030440;28;21013;-46
2023/08/24 03:31:28;;;;;;;8.80;5.50;;;20.90;99.90;;;;;;5030228;28;21066;-45
2023/08/24 03:33:55;;;;;;;9.83;5.47;;;20.90;99.90;;;;;;5030480;28;20446;-45
2023/08/24 03:36:22;;;;;;;7.57;5.40;;;20.90;99.90;;;;;;5030680;28;20537;-45
2023/08/24 03:38:48;;;;;;;9.23;8.20;;;20.90;99.90;;;;;;5031743;28;20476;-45
2023/08/24 03:41:15;;;;;;;5.67;4.83;;;20.90;99.90;;;;;;5035143;28;20485;-46
2023/08/24 03:43:43;;;;;;;6.43;5.20;;;20.90;99.90;;;;;;5035824;28;20459;-45
2023/08/24 03:46:10;;;;;;;6.33;5.30;;;20.80;99.90;;;;;;5035982;28;20446;-45
2023/08/24 03:48:37;;;;;;;5.50;4.70;;;20.90;99.90;;;;;;5035059;28;20509;-43
2023/08/24 03:51:04;;;;;;;6.03;4.97;;;20.70;99.90;;;;;;5036429;28;20966;-45
2023/08/24 03:53:30;;;;;;;6.30;4.57;;;20.90;99.90;;;;;;5038275;28;20433;-46
2023/08/24 03:55:57;;;;;;;6.80;4.50;;;21.00;99.90;;;;;;5036649;28;20453;-45
2023/08/24 03:58:24;;;;;;;6.80;4.67;;;21.00;99.70;;;;;;5036445;28;20478;-47
2023/08/24 04:00:55;;;;;;;8.93;4.67;;;21.00;99.70;;;;;;5036495;28;20518;-45
2023/08/24 04:03:21;;;;;;;4.47;3.87;;;21.00;99.90;;;;;;5036009;28;20446;-46
2023/08/24 04:05:48;;;;;;;8.90;4.17;;;21.00;99.70;;;;;;5037921;28;20446;-45
2023/08/24 04:08:15;;;;;;;10.10;4.83;;;21.00;99.30;;;;;;5038459;28;20824;-45
2023/08/24 04:10:41;;;;;;;7.87;4.83;;;21.00;99.60;;;;;;5038843;28;20477;-45
2023/08/24 04:13:08;;;;;;;5.30;4.70;;;21.00;99.50;;;;;;5037236;28;20517;-46
2023/08/24 04:15:36;;;;;;;7.03;4.07;;;21.00;99.40;;;;;;5035192;28;20453;-45
2023/08/24 04:18:05;;;;;;;6.50;4.13;;;21.00;98.80;;;;;;5033417;28;20457;-46
2023/08/24 04:20:31;;;;;;;4.87;4.37;;;21.00;99.10;;;;;;5035471;28;20440;-44
2023/08/24 04:22:58;;;;;;;8.50;4.37;;;20.70;98.80;;;;;;5037991;28;20427;-45
2023/08/24 04:25:24;;;;;;;5.87;4.10;;;21.10;98.90;;;;;;5038076;28;20476;-46
2023/08/24 04:27:51;;;;;;;6.33;4.60;;;21.10;98.50;;;;;;5037912;28;20967;-45
2023/08/24 04:30:18;;;;;;;5.70;3.77;;;21.10;98.70;;;;;;5038360;28;20458;-45
2023/08/24 04:32:44;;;;;;;6.63;3.90;;;21.10;98.60;;;;;;5039020;28;20442;-45
2023/08/24 04:35:12;;;;;;;5.50;3.37;;;21.00;98.20;;;;;;5037602;28;20441;-46
2023/08/24 04:37:39;;;;;;;5.00;3.60;;;20.90;98.30;;;;;;5037770;28;20486;-46
2023/08/24 04:40:07;;;;;;;4.20;3.80;;;21.20;98.10;;;;;;5035865;28;20901;-45
2023/08/24 04:42:34;;;;;;;4.83;3.90;;;21.20;98.30;;;;;;5038214;28;20537;-44
2023/08/24 04:45:00;;;;;;;4.40;3.77;;;21.00;98.00;;;;;;5036774;28;20432;-45
2023/08/24 04:47:27;;;;;;;6.30;3.33;;;21.30;97.60;;;;;;5034540;28;20439;-46
2023/08/24 04:49:54;;;;;;;4.90;3.00;;;21.30;97.60;;;;;;5036095;28;20470;-46
2023/08/24 04:52:22;;;;;;;4.07;3.57;;;21.30;97.60;;;;;;5034856;28;20483;-45
2023/08/24 04:54:48;;;;;;;7.00;4.07;;;21.40;97.90;;;;;;5034879;28;20807;-44
2023/08/24 04:57:15;;;;;;;4.63;3.80;;;21.40;97.40;;;;;;5034040;28;20440;-46
2023/08/24 04:59:42;;;;;;;7.33;3.23;;;21.20;97.60;;;;;;5034083;28;20439;-46
2023/08/24 05:02:08;;;;;;;4.20;3.80;;;21.40;97.30;;;;;;5033905;28;20462;-46
2023/08/24 05:04:35;;;;;;;7.90;3.90;;;21.40;97.60;;;;;;5033938;28;20476;-45
2023/08/24 05:07:01;;;;;;;5.77;3.93;;;21.40;97.10;;;;;;5033452;28;20456;-46
2023/08/24 05:09:29;;;;;;;4.03;3.60;;;21.40;97.10;;;;;;5033969;28;20455;-44
2023/08/24 05:11:56;;;;;;;5.60;4.03;;;21.40;97.10;;;;;;5032270;28;20999;-45
2023/08/24 05:14:23;;;;;;;4.20;3.80;;;21.50;97.00;;;;;;5032287;28;20447;-45
2023/08/24 05:16:49;;;;;;;5.67;3.70;;;21.50;97.00;;;;;;5033535;28;20436;-45
2023/08/24 05:19:16;;;;;;;6.10;4.30;;;21.50;96.90;;;;;;5034028;28;20979;-45
2023/08/24 05:21:42;;;;;;;5.90;4.30;;;21.60;97.20;;;;;;5034381;28;20432;-46
2023/08/24 05:24:09;;;;;;;5.63;4.20;;;21.70;97.20;;;;;;5034387;28;21042;-46
2023/08/24 05:26:37;;;;;;;7.70;3.93;;;21.70;96.80;;;;;;5034799;28;20538;-45
2023/08/24 05:29:03;;;;;;;4.77;3.47;;;21.70;97.10;;;;;;5034359;28;20551;-45
2023/08/24 05:31:30;;;;;;;5.63;4.10;;;21.80;97.10;;;;;;5033797;28;21005;-45
2023/08/24 05:33:56;;;;;;;7.40;4.20;;;21.80;96.80;;;;;;5032579;28;20448;-46
2023/08/24 05:36:23;;;;;;;5.70;3.53;;;21.90;96.80;;;;;;5033825;28;20815;-45
2023/08/24 05:38:54;;;;;;;4.87;3.87;;;21.90;96.70;;;;;;5033897;28;20470;-45
2023/08/24 05:41:21;;;;;;;5.70;4.00;;;22.00;96.70;;;;;;5035190;28;20568;-46
2023/08/24 05:43:49;;;;;;;5.90;3.87;;;22.10;96.60;;;;;;5035946;28;20440;-46
2023/08/24 05:46:15;;;;;;;8.97;4.30;;;22.20;96.40;;;;;;5035696;28;20511;-44
2023/08/24 05:48:42;;;;;;;8.63;7.30;;;22.20;96.60;;;;;;5034385;28;20458;-45
2023/08/24 05:51:09;;;;;;;9.53;5.07;;;22.30;96.30;;;;;;5035198;28;20482;-46
2023/08/24 05:53:37;;;;;;;9.37;4.10;;;22.30;96.40;;;;;;5034723;28;20436;-46
2023/08/24 05:56:03;;;;;;;7.10;4.50;;;22.40;96.00;;;;;;5033331;28;20444;-47
2023/08/24 05:58:30;;;;;;;6.10;3.87;;;22.50;95.90;;;;;;5031444;28;20468;-45
2023/08/24 06:00:59;;;;;;;6.40;4.00;;;22.60;96.00;;;;;;5032116;28;20437;-46
2023/08/24 06:03:26;;;;;;;6.27;3.80;;;22.60;95.80;;;;;;5033989;28;20437;-45
2023/08/24 06:05:53;;;;;;;8.60;4.13;;;22.30;95.80;;;;;;5035497;28;20442;-45
2023/08/24 06:08:20;;;;;;;7.00;3.60;;;;;;;;;;5035305;28;20527;-45
2023/08/24 06:10:47;;;;;;;6.50;4.40;;;22.80;95.50;;;;;;5034465;28;20937;-47
2023/08/24 06:13:13;;;;;;;8.37;3.70;;;22.80;95.80;;;;;;5033429;28;20504;-45
2023/08/24 06:15:40;;;;;;;7.63;4.30;;;22.90;95.50;;;;;;5034663;28;20439;-45
2023/08/24 06:18:08;;;;;;;7.20;3.63;;;22.90;95.40;;;;;;5034277;28;20469;-46
2023/08/24 06:20:35;;;;;;;18.67;4.97;;;23.00;95.50;;;;;;5033712;28;20776;-44
2023/08/24 06:23:02;;;;;;;7.07;3.67;;;23.10;95.80;;;;;;5033089;28;20425;-46
2023/08/24 06:25:28;;;;;;;10.67;4.80;;;23.10;95.70;;;;;;5034151;28;20434;-45
2023/08/24 06:27:55;;;;;;;6.87;4.03;;;23.00;95.60;;;;;;5033761;28;21064;-45
2023/08/24 06:30:22;;;;;;;12.23;4.87;;;23.20;95.60;;;;;;5033761;28;20476;-45
2023/08/24 06:32:48;;;;;;;11.40;3.70;;;23.30;95.20;;;;;;5033617;28;20470;-46
2023/08/24 06:35:16;;;;;;;11.47;3.73;;;23.40;94.80;;;;;;5032967;28;20482;-46
2023/08/24 06:37:43;;;;;;;8.13;4.30;;;23.40;95.00;;;;;;5032912;28;20461;-45
2023/08/24 06:40:11;;;;;;;6.20;3.80;;;23.40;94.40;;;;;;5033893;28;20440;-45
2023/08/24 06:42:38;;;;;;;9.90;3.40;;;23.40;94.70;;;;;;5033026;28;20491;-46
2023/08/24 06:45:06;;;;;;;11.40;4.10;;;23.40;94.50;;;;;;5032267;28;20848;-44
2023/08/24 06:47:33;;;;;;;13.63;4.90;;;23.50;94.70;;;;;;5031671;28;20505;-45
2023/08/24 06:50:00;;;;;;;4.90;3.43;;;;;;;;;;5032418;28;20431;-46
2023/08/24 06:52:28;;;;;;;9.37;5.00;;;23.60;94.20;;;;;;5032297;28;20536;-45
2023/08/24 06:54:56;;;;;;;9.90;3.80;;;23.60;94.00;;;;;;5032422;28;21012;-43
2023/08/24 06:57:22;;;;;;;6.70;3.60;;;23.70;94.00;;;;;;5031722;28;20466;-46
2023/08/24 06:59:50;;;;;;;6.80;3.70;;;23.70;94.00;;;;;;5032248;28;20439;-45
2023/08/24 07:02:18;;;;;;;7.17;4.00;;;23.70;94.30;;;;;;5032142;28;20474;-45
2023/08/24 07:04:45;;;;;;;8.53;4.23;;;23.80;93.90;;;;;;5031966;28;20772;-44
2023/08/24 07:07:12;;;;;;;6.70;3.60;;;;;;;;;;5032510;28;20447;-46
2023/08/24 07:09:40;;;;;;;8.30;3.33;;;23.90;93.40;;;;;;5032482;28;20525;-45
2023/08/24 07:12:09;;;;;;;5.40;3.27;;;24.00;93.70;;;;;;5032503;28;20834;-45
2023/08/24 07:14:36;;;;;;;6.40;4.20;;;;;;;;;;5034762;28;20446;-45
2023/08/24 07:17:03;;;;;;;6.43;4.33;;;24.10;93.20;;;;;;5037044;28;20881;-46
2023/08/24 07:19:30;;;;;;;17.27;3.20;;;24.00;93.10;;;;;;5035883;28;20463;-45
2023/08/24 07:21:56;;;;;;;3.57;3.07;;;24.10;93.10;;;;;;5037687;28;20442;-47
2023/08/24 07:24:26;;;;;;;8.70;6.20;;;24.10;93.10;;;;;;5036742;28;20434;-45
2023/08/24 07:26:54;;;;;;;13.63;3.60;;;24.10;92.90;;;;;;5035892;28;20509;-45
2023/08/24 07:29:21;;;;;;;5.00;3.23;;;24.20;92.80;;;;;;5036726;28;20459;-45
2023/08/24 07:31:47;;;;;;;6.73;3.53;;;24.20;93.10;;;;;;5036856;28;20861;-46
2023/08/24 07:34:14;;;;;;;6.77;3.40;;;24.30;92.80;;;;;;5037852;28;20437;-45
2023/08/24 07:36:42;;;;;;;7.63;3.43;;;24.30;92.90;;;;;;5036058;28;20447;-45
2023/08/24 07:39:09;;;;;;;5.33;3.27;;;24.30;92.50;;;;;;5037751;28;20515;-45
2023/08/24 07:41:35;;;;;;;4.47;3.60;;;24.40;92.80;;;;;;5036113;28;20440;-46
2023/08/24 07:44:03;;;;;;;6.63;3.17;;;24.50;92.30;;;;;;5036012;28;20991;-45
2023/08/24 07:46:30;;;;;;;8.37;3.60;;;24.50;92.10;;;;;;5034361;28;20521;-46
2023/08/24 07:48:57;;;;;;;4.80;2.87;;;24.60;91.80;;;;;;5035057;28;20455;-45
2023/08/24 07:51:24;;;;;;;4.40;2.73;;;24.60;91.70;;;;;;5035224;28;20442;-45
2023/08/24 07:53:52;;;;;;;8.47;3.73;;;24.70;91.50;;;;;;5035602;28;20899;-47
2023/08/24 07:56:18;;;;;;;5.77;3.30;;;24.70;91.40;;;;;;5035356;28;20471;-45
2023/08/24 07:58:45;;;;;;;4.63;3.00;;;24.70;91.60;;;;;;5034746;28;20498;-45
2023/08/24 08:01:13;;;;;;;4.00;3.00;;;24.80;91.60;;;;;;5034689;28;20436;-44
2023/08/24 08:03:40;;;;;;;4.77;2.90;;;24.90;91.10;;;;;;5035107;28;20439;-45
2023/08/24 08:06:07;;;;;;;4.27;2.70;;;25.00;90.90;;;;;;5035035;28;20553;-44
2023/08/24 08:08:33;;;;;;;6.03;3.57;;;25.10;90.50;;;;;;5034721;28;20836;-44
2023/08/24 08:11:02;;;;;;;6.20;2.97;;;25.20;90.90;;;;;;5035087;28;20440;-46
2023/08/24 08:13:29;;;;;;;5.37;2.80;;;25.40;90.60;;;;;;5034835;28;20845;-46
2023/08/24 08:16:03;;;;;;;5.03;3.33;;;25.50;90.10;;;;;;5035140;28;20810;-46
2023/08/24 08:18:31;;;;;;;5.10;2.67;;;25.60;90.00;;;;;;5034123;28;20918;-44
2023/08/24 08:20:58;;;;;;;2.90;2.30;;;25.80;89.80;;;;;;5034303;28;20932;-44
2023/08/24 08:23:24;;;;;;;8.00;4.13;;;25.80;89.50;;;;;;5034621;28;20438;-45
2023/08/24 08:25:51;;;;;;;5.37;3.03;;;25.90;88.20;;;;;;5034278;28;20439;-45
2023/08/24 08:28:18;;;;;;;7.20;3.13;;;26.00;88.50;;;;;;5034307;28;20455;-46
2023/08/24 08:30:45;;;;;;;5.13;3.20;;;26.10;87.00;;;;;;5033904;28;20493;-46
2023/08/24 08:33:12;;;;;;;3.63;3.23;;;26.10;86.40;;;;;;5033106;28;20499;-45
2023/08/24 08:35:41;;;;;;;8.53;3.77;;;26.20;86.80;;;;;;5034755;28;20439;-46
2023/08/24 08:38:08;;;;;;;3.93;3.20;;;26.20;84.70;;;;;;5033127;28;20471;-46
2023/08/24 08:40:38;;;;;;;5.27;3.00;;;26.30;85.50;;;;;;5034772;28;20428;-45
2023/08/24 08:43:05;;;;;;;3.10;2.47;;;26.20;84.10;;;;;;5034741;28;20436;-47
2023/08/24 08:45:32;;;;;;;5.60;3.10;;;26.20;85.10;;;;;;5034172;28;20952;-45
2023/08/24 08:48:00;;;;;;;8.03;3.63;;;26.20;84.30;;;;;;5033005;28;20463;-45
2023/08/24 08:50:28;;;;;;;6.67;3.20;;;26.20;85.10;;;;;;5034032;28;20501;-46
2023/08/24 08:52:58;;;;;;;6.13;3.10;;;26.20;85.10;;;;;;5034050;28;20474;-48
2023/08/24 08:55:26;;;;;;;4.10;2.60;;;26.20;84.10;;;;;;5034461;28;20439;-46
2023/08/24 08:57:58;;;;;;;12.03;3.13;;;26.10;84.20;;;;;;5033893;28;20447;-43
2023/08/24 09:00:25;;;;;;;4.30;3.00;;;26.20;85.00;;;;;;5034349;28;20438;-45
2023/08/24 09:02:53;;;;;;;6.80;3.57;;;26.30;84.50;;;;;;5034418;28;20432;-45
2023/08/24 09:05:21;;;;;;;5.77;3.10;;;26.20;85.20;;;;;;5034487;28;20534;-45
2023/08/24 09:07:48;;;;;;;3.77;2.87;;;26.20;84.30;;;;;;5033866;28;20466;-45
2023/08/24 09:10:16;;;;;;;7.00;3.07;;;26.20;85.10;;;;;;5033834;28;20567;-46
2023/08/24 09:12:43;;;;;;;5.33;3.03;;;26.20;83.90;;;;;;5032214;28;20833;-46
2023/08/24 09:15:10;;;;;;;4.60;2.60;;;26.20;84.50;;;;;;5033884;28;20867;-45
2023/08/24 09:17:42;;;;;;;7.03;2.70;;;26.20;83.60;;;;;;5034218;28;20463;-44
2023/08/24 09:20:11;;;;;;;3.73;2.80;;;26.20;83.60;;;;;;5035477;28;20778;-45
2023/08/24 09:22:40;;;;;;;3.77;2.80;;;26.30;83.70;;;;;;5035285;28;20443;-45
2023/08/24 09:25:09;;;;;;;6.00;2.70;;;26.30;82.30;;;;;;5018445;28;20578;-44
2023/08/24 09:27:38;;;;;;;7.07;2.80;;;26.30;82.50;;;;;;5019415;28;20473;-46
2023/08/24 09:30:07;;;;;;;7.80;3.27;;;26.30;83.10;;;;;;5034947;28;20477;-44
2023/08/24 09:32:33;;;;;;;6.23;2.80;;;26.30;82.80;;;;;;5035156;28;20830;-44
2023/08/24 09:35:05;;;;;;;9.57;3.20;;;26.20;82.20;;;;;;5037830;28;20470;-44
2023/08/24 09:37:34;;;;;;;5.30;2.90;;;26.20;82.20;;;;;;5036626;28;20881;-45
2023/08/24 09:40:07;;;;;;;3.90;2.70;;;26.10;82.40;;;;;;4999544;28;20532;-44
2023/08/24 09:42:40;;;;;;;5.47;3.00;;;26.10;82.60;;;;;;4997884;28;20472;-44
2023/08/24 09:45:09;;;;;;;5.57;2.73;;;26.00;82.00;;;;;;4996169;28;20469;-44
2023/08/24 09:47:36;;;;;;;5.40;2.50;;;25.90;82.00;;;;;;4995294;28;20469;-44
2023/08/24 09:50:03;;;;;;;3.40;2.90;;;26.00;82.00;;;;;;4996875;28;20437;-44
2023/08/24 09:52:33;;;;;;;4.93;3.10;;;26.00;82.30;;;;;;4998780;28;20861;-45
2023/08/24 09:55:05;;;;;;;4.90;3.00;;;25.60;82.70;;;;;;4998265;28;20429;-43
2023/08/24 09:57:35;;;;;;;4.70;3.30;;;25.90;82.30;;;;;;4998387;28;20465;-46
2023/08/24 10:00:09;;;;;;;4.43;2.93;;;25.90;82.30;;;;;;5038516;28;20442;-44
2023/08/24 10:02:38;;;;;;;3.93;3.03;;;26.00;81.80;;;;;;5037984;28;20431;-44
2023/08/24 10:05:07;;;;;;;5.70;2.90;;;25.90;80.90;;;;;;5035743;28;20442;-43
2023/08/24 10:07:35;;;;;;;4.63;2.77;;;26.00;79.70;;;;;;5034085;28;20493;-43
2023/08/24 10:10:09;;;;;;;3.80;2.80;;;26.00;79.00;;;;;;5034763;28;20440;-44
2023/08/24 10:12:43;;;;;;;7.53;2.70;;;26.00;79.70;;;;;;5033795;28;20512;-43
2023/08/24 10:15:12;;;;;;;4.27;3.37;;;26.00;79.30;;;;;;5033894;28;20435;-44
2023/08/24 10:17:40;;;;;;;6.47;3.50;;;26.00;80.40;;;;;;5033123;28;20854;-43
2023/08/24 10:20:08;;;;;;;5.93;3.30;;;26.00;80.50;;;;;;5033278;28;20538;-44
2023/08/24 10:22:36;;;;;;;5.70;2.77;;;26.00;80.20;;;;;;5033171;28;20439;-44
2023/08/24 10:25:03;;;;;;;9.27;2.87;;;25.90;78.30;;;;;;5032922;28;20424;-45
2023/08/24 10:27:30;;;;;;;10.17;2.50;;;26.10;77.50;;;;;;5032559;28;20461;-44
2023/08/24 10:29:58;;;;;;;5.03;3.73;;;26.10;77.60;;;;;;5033214;28;20442;-44
2023/08/24 10:32:27;;;;;;;3.70;2.73;;;26.20;78.40;;;;;;5033069;28;21008;-44
2023/08/24 10:34:54;;;;;;;3.93;2.80;;;26.20;78.60;;;;;;5033075;28;20443;-44
2023/08/24 10:37:26;;;;;;;4.00;2.23;;;26.20;78.60;;;;;;5032483;28;20441;-44
2023/08/24 10:39:53;;;;;;;4.17;2.93;;;26.20;78.60;;;;;;5033156;28;20442;-44
2023/08/24 10:42:20;;;;;;;5.87;2.70;;;26.20;79.40;;;;;;5033234;28;20889;-43
2023/08/24 10:44:49;;;;;;;7.47;2.90;;;26.00;79.20;;;;;;5032742;28;20441;-46
2023/08/24 10:47:18;;;;;;;4.53;2.50;;;26.30;78.40;;;;;;5016044;28;20536;-45
2023/08/24 10:49:58;;;;;;;2.97;2.67;;;26.30;78.20;;;;;;5011635;28;20456;-46
2023/08/24 10:52:27;;;;;;;4.23;2.97;;;26.30;78.10;;;;;;5012667;28;20507;-44
2023/08/24 10:54:54;;;;;;;7.43;3.10;;;26.30;79.10;;;;;;5013520;28;20878;-43
2023/08/24 10:57:23;;;;;;;7.97;3.00;;;26.30;78.80;;;;;;5012571;28;20436;-44
2023/08/24 11:00:00;;;;;;;7.47;3.10;;;26.40;79.60;;;;;;5012926;28;20433;-46
2023/08/24 11:02:27;;;;;;;5.50;3.00;;;26.40;78.90;;;;;;5012585;28;20440;-45
2023/08/24 11:05:15;;;;;;;5.13;2.93;;;26.40;79.70;;;;;;5013003;28;20438;-44
2023/08/24 11:07:49;;;;;;;3.30;2.90;;;26.40;79.40;;;;;;5030890;28;20996;-48
2023/08/24 11:10:17;;;;;;;4.33;2.80;;;26.50;79.40;;;;;;5032625;28;20994;-45
2023/08/24 11:13:09;;;;;;;5.47;3.00;;;26.50;78.90;;;;;;5032991;28;20482;-46
2023/08/24 11:15:41;;;;;;;5.23;3.00;;;26.50;79.30;;;;;;5035670;28;20443;-42
2023/08/24 11:18:23;;;;;;;6.03;3.27;;;26.50;79.60;;;;;;5032576;28;20980;-43
2023/08/24 11:20:52;;;;;;;4.70;3.00;;;26.50;79.60;;;;;;5033070;28;20499;-44
2023/08/24 11:23:20;;;;;;;3.70;3.37;;;26.50;79.90;;;;;;5032375;28;20804;-44
2023/08/24 11:25:48;;;;;;;9.37;3.23;;;26.60;80.30;;;;;;5032593;28;20474;-43
2023/08/24 11:28:19;;;;;;;8.37;3.40;;;26.60;80.00;;;;;;5017407;28;20969;-44
2023/08/24 11:30:46;;;;;;;6.37;3.23;;;26.70;79.90;;;;;;5013015;28;20428;-46
2023/08/24 11:33:14;;;;;;;7.93;3.80;;;26.70;80.20;;;;;;5025950;28;20484;-43
2023/08/24 11:35:43;;;;;;;4.37;3.53;;;26.70;80.00;;;;;;5032452;28;20492;-44
2023/08/24 11:38:11;;;;;;;5.90;4.27;;;26.70;79.80;;;;;;5032046;28;20845;-44
2023/08/24 11:40:38;;;;;;;5.67;3.00;;;26.70;79.80;;;;;;5033044;28;20454;-42
2023/08/24 11:43:05;;;;;;;7.70;3.20;;;26.70;80.20;;;;;;5032638;28;20435;-44
2023/08/24 11:45:33;;;;;;;5.00;4.10;;;26.70;79.90;;;;;;5032140;28;20486;-45
2023/08/24 11:48:01;;;;;;;9.10;4.90;;;26.70;80.00;;;;;;5031522;28;20460;-43
2023/08/24 11:50:28;;;;;;;5.03;3.27;;;26.70;79.70;;;;;;5032886;28;20432;-44
2023/08/24 11:52:55;;;;;;;6.20;3.73;;;26.40;79.40;;;;;;5031920;28;20634;-45
2023/08/24 11:55:23;;;;;;;5.43;2.93;;;26.70;78.90;;;;;;5032264;28;20462;-42
2023/08/24 11:57:50;;;;;;;7.63;3.60;;;26.70;79.50;;;;;;5032404;28;20468;-43
2023/08/24 12:00:19;;;;;;;4.13;3.20;;;26.80;80.30;;;;;;5034618;28;20434;-44
2023/08/24 12:02:46;;;;;;;3.60;3.10;;;26.70;79.50;;;;;;5036455;28;20431;-43
2023/08/24 12:05:21;;;;;;;4.93;4.07;;;26.70;79.50;;;;;;5037067;28;20493;-45
2023/08/24 12:07:48;;;;;;;5.77;3.30;;;26.70;79.50;;;;;;5037083;28;20464;-49
2023/08/24 12:10:15;;;;;;;6.37;3.50;;;26.70;79.70;;;;;;5038714;28;20447;-44
2023/08/24 12:12:44;;;;;;;11.43;3.87;;;26.70;79.80;;;;;;5036489;28;20952;-43
2023/08/24 12:15:16;;;;;;;3.47;2.90;;;26.70;79.90;;;;;;5035831;28;20828;-44
2023/08/24 12:17:44;;;;;;;5.27;3.40;;;26.70;79.30;;;;;;5036171;28;20497;-45
2023/08/24 12:20:19;;;;;;;10.23;3.90;;;26.70;79.00;;;;;;5035325;28;20513;-42
2023/08/24 12:22:51;;;;;;;6.77;3.70;;;26.70;79.70;;;;;;5035720;28;20525;-43
2023/08/24 12:25:17;;;;;;;5.47;4.20;;;26.70;79.70;;;;;;5034229;28;21113;-41
2023/08/24 12:27:45;;;;;;;12.57;9.10;;;26.80;79.90;;;;;;5035076;28;20460;-43
2023/08/24 12:30:13;;;;;;;6.43;4.00;;;26.50;79.60;;;;;;5038022;28;20432;-43
2023/08/24 12:32:43;;;;;;;5.30;4.50;;;26.90;79.80;;;;;;5035313;28;20447;-43
2023/08/24 12:35:10;;;;;;;5.50;3.63;;;27.00;80.20;;;;;;5035826;28;20490;-43
2023/08/24 12:37:37;;;;;;;5.20;3.20;;;27.00;79.60;;;;;;5035698;28;20462;-41
2023/08/24 12:40:05;;;;;;;5.63;3.27;;;27.10;79.40;;;;;;5035224;28;20922;-44
2023/08/24 12:42:32;;;;;;;3.70;3.03;;;27.20;79.90;;;;;;5034492;28;20463;-44
2023/08/24 12:45:00;;;;;;;4.37;3.50;;;27.20;80.60;;;;;;5036158;28;20576;-43
2023/08/24 12:47:26;;;;;;;6.73;6.13;;;27.20;78.30;;;;;;5039054;28;20435;-43
2023/08/24 12:49:54;;;;;;;3.60;3.00;;;27.30;79.00;;;;;;5035995;28;20940;-43
2023/08/24 12:52:21;;;;;;;6.10;3.23;;;28.70;79.50;;;;;;5037431;28;20443;-43